createdAt,value
2022-12-23T00:00:05.875Z,109.28
2022-12-23T00:01:09.778Z,130.05
2022-12-23T00:02:19.287Z,201.77
2022-12-23T00:03:22.833Z,135.65
2022-12-23T00:04:25.957Z,190.93
2022-12-23T00:05:35.817Z,97.40
2022-12-23T00:06:40.881Z,116.60
2022-12-23T00:07:45.171Z,110.97
2022-12-23T00:08:50.586Z,180.93
2022-12-23T00:09:53.661Z,103.07
2022-12-23T00:10:57.863Z,85.38
2022-12-23T00:12:19.219Z,88.45
2022-12-23T00:13:41.064Z,58.60
2022-12-23T00:16:12.528Z,59.22
2022-12-23T00:17:22.754Z,62.40
2022-12-23T00:18:26.874Z,57.25
2022-12-23T00:19:29.749Z,56.20
2022-12-23T00:20:34.587Z,58.50
2022-12-23T00:21:40.586Z,61.55
2022-12-23T00:23:02.259Z,61.63
2022-12-23T00:24:05.310Z,60.60
2022-12-23T00:25:08.812Z,65.10
2022-12-23T00:26:20.959Z,81.53
2022-12-23T00:27:23.843Z,61.17
2022-12-23T00:28:28.774Z,72.80
2022-12-23T00:29:31.678Z,81.80
2022-12-23T00:30:34.524Z,64.90
2022-12-23T00:31:37.546Z,75.32
2022-12-23T00:32:40.438Z,62.90
2022-12-23T00:33:45.529Z,86.47
2022-12-23T00:34:48.300Z,68.37
2022-12-23T00:35:52.151Z,75.05
2022-12-23T00:36:55.075Z,77.30
2022-12-23T00:37:58.279Z,58.80
2022-12-23T00:39:19.540Z,65.12
2022-12-23T00:40:40.841Z,69.78
2022-12-23T00:42:02.620Z,62.58
2022-12-23T00:43:05.352Z,67.45
2022-12-23T00:44:08.083Z,66.65
2022-12-23T00:45:17.192Z,71.20
2022-12-23T00:46:20.035Z,67.50
2022-12-23T00:47:58.102Z,59.40
2022-12-23T00:49:20.623Z,55.28
2022-12-23T00:50:23.416Z,54.22
2022-12-23T00:51:26.253Z,55.45
2022-12-23T00:52:28.984Z,61.17
2022-12-23T00:53:31.826Z,54.35
2022-12-23T00:54:34.584Z,56.33
2022-12-23T00:55:37.588Z,56.60
2022-12-23T00:56:40.384Z,62.08
2022-12-23T00:57:43.180Z,47.15
2022-12-23T00:58:46.461Z,52.30
2022-12-23T00:59:49.179Z,66.10
2022-12-23T01:01:12.634Z,62.50
2022-12-23T01:02:34.121Z,50.33
2022-12-23T01:03:55.495Z,54.50
2022-12-23T01:05:17.041Z,48.90
2022-12-23T01:06:19.863Z,50.42
2022-12-23T01:07:24.067Z,48.20
2022-12-23T01:08:27.973Z,52.28
2022-12-23T01:09:31.217Z,46.60
2022-12-23T01:10:38.897Z,47.80
2022-12-23T01:11:41.976Z,45.95
2022-12-23T01:12:44.825Z,48.03
2022-12-23T01:13:47.697Z,51.67
2022-12-23T01:14:50.732Z,45.03
2022-12-23T01:16:04.357Z,48.75
2022-12-23T01:17:08.614Z,41.55
2022-12-23T01:18:12.930Z,48.90
2022-12-23T01:19:16.400Z,45.95
2022-12-23T01:20:19.538Z,43.05
2022-12-23T01:21:22.456Z,46.22
2022-12-23T01:22:25.260Z,45.88
2022-12-23T01:23:28.096Z,48.33
2022-12-23T01:24:32.470Z,50.22
2022-12-23T01:25:35.307Z,45.85
2022-12-23T01:26:38.908Z,52.30
2022-12-23T01:27:41.906Z,50.45
2022-12-23T01:28:45.254Z,51.33
2022-12-23T01:29:48.177Z,41.28
2022-12-23T01:30:51.411Z,55.70
2022-12-23T01:31:54.409Z,54.50
2022-12-23T01:32:57.465Z,46.45
2022-12-23T01:34:00.357Z,46.35
2022-12-23T01:35:03.608Z,49.78
2022-12-23T01:36:08.547Z,52.80
2022-12-23T01:37:11.684Z,55.83
2022-12-23T01:38:14.868Z,47.08
2022-12-23T01:39:18.556Z,48.85
2022-12-23T01:40:21.387Z,51.45
2022-12-23T01:41:47.632Z,44.28
2022-12-23T01:42:50.461Z,46.75
2022-12-23T01:43:53.249Z,48.72
2022-12-23T01:45:02.699Z,54.60
2022-12-23T01:46:06.875Z,42.30
2022-12-23T01:47:33.679Z,48.67
2022-12-23T01:48:38.292Z,45.42
2022-12-23T01:49:42.368Z,47.78
2022-12-23T01:50:51.899Z,52.47
2022-12-23T01:51:55.094Z,42.15
2022-12-23T01:53:07.699Z,48.13
2022-12-23T01:54:11.206Z,49.75
2022-12-23T01:55:17.511Z,48.80
2022-12-23T01:56:26.820Z,47.78
2022-12-23T01:57:30.078Z,50.05
2022-12-23T01:59:03.105Z,45.08
2022-12-23T02:00:25.503Z,46.75
2022-12-23T02:01:48.717Z,47.10
2022-12-23T02:03:11.568Z,42.60
2022-12-23T02:04:20.320Z,39.13
2022-12-23T02:05:24.645Z,43.17
2022-12-23T02:06:55.421Z,41.40
2022-12-23T02:08:16.810Z,41.13
2022-12-23T02:09:23.733Z,34.80
2022-12-23T02:10:51.532Z,40.75
2022-12-23T02:12:17.961Z,35.53
2022-12-23T02:14:02.432Z,39.90
2022-12-23T02:15:45.748Z,38.35
2022-12-23T02:17:08.272Z,28.20
2022-12-23T02:18:38.638Z,34.50
2022-12-23T02:20:27.975Z,29.45
2022-12-23T02:21:46.337Z,34.25
2022-12-23T02:23:21.415Z,30.60
2022-12-23T02:24:43.003Z,30.70
2022-12-23T02:25:49.103Z,32.65
2022-12-23T02:27:13.870Z,29.02
2022-12-23T02:28:41.697Z,32.30
2022-12-23T02:30:22.301Z,31.15
2022-12-23T02:31:51.299Z,27.37
2022-12-23T02:33:09.863Z,26.10
2022-12-23T02:34:29.658Z,28.40
2022-12-23T02:35:47.584Z,27.08
2022-12-23T02:37:27.551Z,29.83
2022-12-23T02:38:42.177Z,26.73
2022-12-23T02:39:51.136Z,24.50
2022-12-23T02:41:23.270Z,26.90
2022-12-23T02:43:38.793Z,27.13
2022-12-23T02:45:03.214Z,22.40
2022-12-23T02:46:14.458Z,22.30
2022-12-23T02:47:23.137Z,25.50
2022-12-23T02:48:51.462Z,23.48
2022-12-23T02:49:57.915Z,26.75
2022-12-23T02:51:02.499Z,21.55
2022-12-23T02:52:13.249Z,22.87
2022-12-23T02:53:29.591Z,23.87
2022-12-23T02:54:39.058Z,24.15
2022-12-23T02:55:45.213Z,27.73
2022-12-23T02:56:51.254Z,20.17
2022-12-23T02:57:57.736Z,23.33
2022-12-23T02:59:15.978Z,25.27
2022-12-23T03:00:19.780Z,25.85
2022-12-23T03:01:24.974Z,20.67
2022-12-23T03:02:28.105Z,23.35
2022-12-23T03:03:32.300Z,21.55
2022-12-23T03:04:35.056Z,26.05
2022-12-23T03:05:44.020Z,28.67
2022-12-23T03:06:52.067Z,28.00
2022-12-23T03:08:02.820Z,24.05
2022-12-23T03:09:08.290Z,27.65
2022-12-23T03:10:33.613Z,27.67
2022-12-23T03:12:11.433Z,31.23
2022-12-23T03:13:27.089Z,26.25
2022-12-23T03:15:04.036Z,25.75
2022-12-23T03:16:46.336Z,22.70
2022-12-23T03:18:06.814Z,23.42
2022-12-23T03:19:39.917Z,24.30
2022-12-23T03:20:50.494Z,23.42
2022-12-23T03:22:24.218Z,27.90
2022-12-23T03:23:29.418Z,25.92
2022-12-23T03:24:56.417Z,27.37
2022-12-23T03:25:59.305Z,25.25
2022-12-23T03:27:34.309Z,39.97
2022-12-23T03:28:55.821Z,27.50
2022-12-23T03:30:05.749Z,22.75
2022-12-23T03:31:14.379Z,29.45
2022-12-23T03:32:20.051Z,25.45
2022-12-23T03:33:28.743Z,22.33
2022-12-23T03:34:36.433Z,28.15
2022-12-23T03:35:45.727Z,24.35
2022-12-23T03:36:56.348Z,24.95
2022-12-23T03:38:00.938Z,31.00
2022-12-23T03:39:11.584Z,26.92
2022-12-23T03:40:27.862Z,22.37
2022-12-23T03:41:37.256Z,49.67
2022-12-23T03:42:41.663Z,35.70
2022-12-23T03:43:54.786Z,36.88
2022-12-23T03:45:37.096Z,125.55
2022-12-23T03:46:37.943Z,194.05
2022-12-23T03:49:07.946Z,255.48
2022-12-23T03:50:17.732Z,353.70
2022-12-23T03:51:26.818Z,292.20
2022-12-23T03:52:44.061Z,383.23
2022-12-23T03:53:55.823Z,452.05
2022-12-23T03:55:05.257Z,256.65
2022-12-23T03:56:16.999Z,228.77
2022-12-23T03:58:29.720Z,214.35
2022-12-23T03:59:37.618Z,390.87
2022-12-23T04:00:48.862Z,209.68
2022-12-23T04:01:58.139Z,309.73
2022-12-23T04:03:15.216Z,296.50
2022-12-23T04:04:36.596Z,401.15
2022-12-23T04:05:48.418Z,286.62
2022-12-23T04:07:03.290Z,315.48
2022-12-23T04:08:25.175Z,270.15
2022-12-23T04:09:29.070Z,199.95
2022-12-23T04:10:32.297Z,255.95
2022-12-23T04:11:36.306Z,277.45
2022-12-23T04:12:40.434Z,398.23
2022-12-23T04:13:43.416Z,97.20
2022-12-23T04:14:48.577Z,115.32
2022-12-23T04:15:51.440Z,274.58
2022-12-23T04:16:58.495Z,184.55
2022-12-23T04:18:01.346Z,132.15
2022-12-23T04:19:04.417Z,191.02
2022-12-23T04:20:08.105Z,211.27
2022-12-23T04:21:11.103Z,263.23
2022-12-23T04:22:16.393Z,253.12
2022-12-23T04:23:19.146Z,212.23
2022-12-23T04:24:22.061Z,218.60
2022-12-23T04:25:24.898Z,192.57
2022-12-23T04:26:27.706Z,175.07
2022-12-23T04:27:30.535Z,191.88
2022-12-23T04:28:34.698Z,278.60
2022-12-23T04:29:37.574Z,264.33
2022-12-23T04:30:40.696Z,322.00
2022-12-23T04:31:43.496Z,331.77
2022-12-23T04:32:46.376Z,203.93
2022-12-23T04:33:49.344Z,165.20
2022-12-23T04:34:52.096Z,188.30
2022-12-23T04:35:55.017Z,138.40
2022-12-23T04:36:57.905Z,214.68
2022-12-23T04:38:00.661Z,237.02
2022-12-23T04:39:04.014Z,182.40
2022-12-23T04:40:07.552Z,148.60
2022-12-23T04:41:10.496Z,141.85
2022-12-23T04:42:13.373Z,172.73
2022-12-23T04:43:16.274Z,193.95
2022-12-23T04:44:19.134Z,123.90
2022-12-23T04:45:21.873Z,109.22
2022-12-23T04:46:24.751Z,142.55
2022-12-23T04:47:28.017Z,139.20
2022-12-23T04:48:31.259Z,158.73
2022-12-23T04:49:34.023Z,206.57
2022-12-23T04:50:36.937Z,129.68
2022-12-23T04:51:39.779Z,139.18
2022-12-23T04:52:46.121Z,153.00
2022-12-23T04:53:49.040Z,226.57
2022-12-23T04:54:52.069Z,100.55
2022-12-23T04:55:54.913Z,128.98
2022-12-23T04:56:57.841Z,128.12
2022-12-23T04:58:00.614Z,117.50
2022-12-23T04:59:04.502Z,153.00
2022-12-23T05:00:08.242Z,215.48
2022-12-23T05:01:13.076Z,115.32
2022-12-23T05:02:16.393Z,159.40
2022-12-23T05:03:19.640Z,99.05
2022-12-23T05:04:22.600Z,132.75
2022-12-23T05:05:25.419Z,106.10
2022-12-23T05:06:28.447Z,98.82
2022-12-23T05:07:31.236Z,142.85
2022-12-23T05:08:37.647Z,177.32
2022-12-23T05:09:40.416Z,123.05
2022-12-23T05:10:45.821Z,147.75
2022-12-23T05:11:48.640Z,132.98
2022-12-23T05:12:51.626Z,134.52
2022-12-23T05:13:54.418Z,123.65
2022-12-23T05:14:57.259Z,129.00
2022-12-23T05:15:59.988Z,102.55
2022-12-23T05:17:07.475Z,129.85
2022-12-23T05:18:11.294Z,112.53
2022-12-23T05:19:14.555Z,115.22
2022-12-23T05:20:17.351Z,114.95
2022-12-23T05:21:20.174Z,142.75
2022-12-23T05:22:22.976Z,193.05
2022-12-23T05:23:25.849Z,143.68
2022-12-23T05:24:28.606Z,92.47
2022-12-23T05:25:36.909Z,88.57
2022-12-23T05:26:39.761Z,142.73
2022-12-23T05:27:42.434Z,81.80
2022-12-23T05:28:46.803Z,89.57
2022-12-23T05:29:49.680Z,50.30
2022-12-23T05:31:01.750Z,68.37
2022-12-23T05:32:05.103Z,37.85
2022-12-23T05:33:08.090Z,27.48
2022-12-23T05:34:11.002Z,21.62
2022-12-23T05:35:13.894Z,18.23
2022-12-23T05:36:16.853Z,19.58
2022-12-23T05:37:20.070Z,16.27
2022-12-23T05:38:27.889Z,18.83
2022-12-23T05:39:31.380Z,73.57
2022-12-23T05:40:34.137Z,20.25
2022-12-23T05:41:37.222Z,25.17
2022-12-23T05:42:40.285Z,57.60
2022-12-23T05:43:43.339Z,46.35
2022-12-23T05:44:46.424Z,42.33
2022-12-23T05:45:50.417Z,44.45
2022-12-23T05:46:53.240Z,62.60
2022-12-23T05:47:55.994Z,63.47
2022-12-23T05:48:58.799Z,58.40
2022-12-23T05:50:01.935Z,62.62
2022-12-23T05:51:05.062Z,56.97
2022-12-23T05:52:07.708Z,74.43
2022-12-23T05:53:10.702Z,62.33
2022-12-23T05:54:13.545Z,73.32
2022-12-23T05:55:16.442Z,54.13
2022-12-23T05:56:19.658Z,54.03
2022-12-23T05:57:22.999Z,74.12
2022-12-23T05:58:25.925Z,55.97
2022-12-23T05:59:31.213Z,67.25
2022-12-23T06:00:34.948Z,125.25
2022-12-23T06:01:37.948Z,121.87
2022-12-23T06:02:41.370Z,58.38
2022-12-23T06:03:51.184Z,71.65
2022-12-23T06:04:54.065Z,86.37
2022-12-23T06:05:57.084Z,167.27
2022-12-23T06:06:59.975Z,101.82
2022-12-23T06:08:02.715Z,121.25
2022-12-23T06:09:07.339Z,115.62
2022-12-23T06:10:11.251Z,147.80
2022-12-23T06:11:14.154Z,147.82
2022-12-23T06:12:16.987Z,204.87
2022-12-23T06:13:20.034Z,184.00
2022-12-23T06:14:28.552Z,202.45
2022-12-23T06:15:32.494Z,140.57
2022-12-23T06:16:35.308Z,183.20
2022-12-23T06:17:38.336Z,147.43
2022-12-23T06:18:42.778Z,128.12
2022-12-23T06:19:47.568Z,181.12
2022-12-23T06:20:50.421Z,230.52
2022-12-23T06:21:53.295Z,305.37
2022-12-23T06:22:56.063Z,269.08
2022-12-23T06:23:58.871Z,240.73
2022-12-23T06:25:01.619Z,372.15
2022-12-23T06:26:04.760Z,370.85
2022-12-23T06:27:08.108Z,341.90
2022-12-23T06:28:12.105Z,194.07
2022-12-23T06:29:14.995Z,347.23
2022-12-23T06:30:17.934Z,207.85
2022-12-23T06:31:20.907Z,389.50
2022-12-23T06:32:23.816Z,359.27
2022-12-23T06:33:26.661Z,281.38
2022-12-23T06:34:29.509Z,190.18
2022-12-23T06:35:32.374Z,324.25
2022-12-23T06:36:35.059Z,301.27
2022-12-23T06:37:38.145Z,365.27
2022-12-23T06:38:41.265Z,235.82
2022-12-23T06:39:44.047Z,154.70
2022-12-23T06:40:46.991Z,319.25
2022-12-23T06:41:50.263Z,191.95
2022-12-23T06:42:53.132Z,172.30
2022-12-23T06:43:55.865Z,281.87
2022-12-23T06:44:58.607Z,196.98
2022-12-23T06:46:01.388Z,255.12
2022-12-23T06:47:04.222Z,257.87
2022-12-23T06:48:08.548Z,239.68
2022-12-23T06:49:14.180Z,295.42
2022-12-23T06:50:17.459Z,225.30
2022-12-23T06:51:23.905Z,240.95
2022-12-23T06:52:26.766Z,222.02
2022-12-23T06:53:29.477Z,207.50
2022-12-23T06:54:32.202Z,159.45
2022-12-23T06:55:35.234Z,176.65
2022-12-23T06:56:39.146Z,235.00
2022-12-23T06:57:41.944Z,173.95
2022-12-23T06:58:47.039Z,242.77
2022-12-23T06:59:50.080Z,140.82
2022-12-23T07:00:53.047Z,167.57
2022-12-23T07:01:56.032Z,149.95
2022-12-23T07:02:59.217Z,240.52
2022-12-23T07:04:03.223Z,129.75
2022-12-23T07:05:06.632Z,222.30
2022-12-23T07:06:09.567Z,192.15
2022-12-23T07:07:12.318Z,307.73
2022-12-23T07:08:16.034Z,294.98
2022-12-23T07:09:19.060Z,417.25
2022-12-23T07:10:21.962Z,262.95
2022-12-23T07:11:24.863Z,279.40
2022-12-23T07:12:27.791Z,322.65
2022-12-23T07:13:32.065Z,280.70
2022-12-23T07:14:34.799Z,247.40
2022-12-23T07:15:38.561Z,330.20
2022-12-23T07:16:41.404Z,299.20
2022-12-23T07:17:44.197Z,204.20
2022-12-23T07:18:47.565Z,453.80
2022-12-23T07:19:50.510Z,306.40
2022-12-23T07:20:53.616Z,251.90
2022-12-23T07:21:56.463Z,239.88
2022-12-23T07:22:59.282Z,270.70
2022-12-23T07:24:02.034Z,285.60
2022-12-23T07:25:05.123Z,278.40
2022-12-23T07:26:08.017Z,361.33
2022-12-23T07:27:10.842Z,347.77
2022-12-23T07:28:13.844Z,211.18
2022-12-23T07:29:16.589Z,274.02
2022-12-23T07:30:20.147Z,258.92
2022-12-23T07:31:23.081Z,182.48
2022-12-23T07:32:25.917Z,129.68
2022-12-23T07:33:28.617Z,138.37
2022-12-23T07:34:35.160Z,152.05
2022-12-23T07:35:38.066Z,125.10
2022-12-23T07:36:40.849Z,105.95
2022-12-23T07:37:43.678Z,171.10
2022-12-23T07:38:51.139Z,157.73
2022-12-23T07:39:54.037Z,181.32
2022-12-23T07:40:56.939Z,155.82
2022-12-23T07:42:25.180Z,219.25
2022-12-23T07:43:22.579Z,120.47
2022-12-23T07:44:25.295Z,245.18
2022-12-23T07:45:29.734Z,193.95
2022-12-23T07:46:32.480Z,168.57
2022-12-23T07:47:35.323Z,176.87
2022-12-23T07:48:41.492Z,128.25
2022-12-23T07:49:44.249Z,183.87
2022-12-23T07:50:47.533Z,136.35
2022-12-23T07:51:50.657Z,169.37
2022-12-23T07:52:54.555Z,110.20
2022-12-23T07:53:57.379Z,186.45
2022-12-23T07:55:00.213Z,170.40
2022-12-23T07:56:03.131Z,147.00
2022-12-23T07:57:06.202Z,196.32
2022-12-23T07:58:09.143Z,155.68
2022-12-23T07:59:12.321Z,153.35
2022-12-23T08:00:15.417Z,172.27
2022-12-23T08:01:19.259Z,138.75
2022-12-23T08:02:25.718Z,146.18
2022-12-23T08:03:29.365Z,113.47
2022-12-23T08:04:32.413Z,144.73
2022-12-23T08:05:35.137Z,141.80
2022-12-23T08:06:38.408Z,132.00
2022-12-23T08:07:41.575Z,87.47
2022-12-23T08:08:46.486Z,75.62
2022-12-23T08:09:49.419Z,102.00
2022-12-23T08:10:58.414Z,80.05
2022-12-23T08:12:01.409Z,61.45
2022-12-23T08:13:04.061Z,47.50
2022-12-23T08:14:07.287Z,62.60
2022-12-23T08:15:10.199Z,116.90
2022-12-23T08:16:13.141Z,121.80
2022-12-23T08:17:16.138Z,135.45
2022-12-23T08:18:19.211Z,93.72
2022-12-23T08:19:22.288Z,94.05
2022-12-23T08:20:25.100Z,118.35
2022-12-23T08:21:27.941Z,81.25
2022-12-23T08:22:32.150Z,124.53
2022-12-23T08:23:35.376Z,220.55
2022-12-23T08:24:38.120Z,150.68
2022-12-23T08:25:40.840Z,94.75
2022-12-23T08:26:43.616Z,58.60
2022-12-23T08:27:46.477Z,166.73
2022-12-23T08:28:54.884Z,173.10
2022-12-23T08:29:57.666Z,163.12
2022-12-23T08:31:32.159Z,198.07
2022-12-23T08:32:36.021Z,155.02
2022-12-23T08:33:40.637Z,214.75
2022-12-23T08:34:43.353Z,250.43
2022-12-23T08:35:46.143Z,292.48
2022-12-23T08:36:48.835Z,212.25
2022-12-23T08:37:51.633Z,277.65
2022-12-23T08:38:58.822Z,298.77
2022-12-23T08:40:01.595Z,326.88
2022-12-23T08:41:10.568Z,194.13
2022-12-23T08:42:13.498Z,218.55
2022-12-23T08:43:16.488Z,123.60
2022-12-23T08:44:20.365Z,232.93
2022-12-23T08:45:23.181Z,206.70
2022-12-23T08:46:26.463Z,99.80
2022-12-23T08:47:29.258Z,129.27
2022-12-23T08:48:33.779Z,106.05
2022-12-23T08:49:36.702Z,148.50
2022-12-23T08:50:44.533Z,166.20
2022-12-23T08:51:47.758Z,141.80
2022-12-23T08:52:50.694Z,203.10
2022-12-23T08:54:00.496Z,170.07
2022-12-23T08:55:03.696Z,179.93
2022-12-23T08:56:12.291Z,160.37
2022-12-23T08:57:15.060Z,179.52
2022-12-23T08:58:20.284Z,110.88
2022-12-23T08:59:23.501Z,141.10
2022-12-23T09:00:26.237Z,158.00
2022-12-23T09:01:31.407Z,177.48
2022-12-23T09:02:34.880Z,256.85
2022-12-23T09:03:39.242Z,261.05
2022-12-23T09:04:42.020Z,264.95
2022-12-23T09:05:45.217Z,253.77
2022-12-23T09:06:48.107Z,277.73
2022-12-23T09:07:51.031Z,282.02
2022-12-23T09:08:54.638Z,271.77
2022-12-23T09:09:57.472Z,237.95
2022-12-23T09:11:00.553Z,255.90
2022-12-23T09:12:03.528Z,312.20
2022-12-23T09:13:06.379Z,315.20
2022-12-23T09:14:10.336Z,300.02
2022-12-23T09:15:13.445Z,251.10
2022-12-23T09:16:17.096Z,422.70
2022-12-23T09:17:20.093Z,299.83
2022-12-23T09:18:26.404Z,298.77
2022-12-23T09:19:29.328Z,230.40
2022-12-23T09:20:32.436Z,220.68
2022-12-23T09:21:35.626Z,263.58
2022-12-23T09:22:38.384Z,307.42
2022-12-23T09:23:41.701Z,201.90
2022-12-23T09:24:44.731Z,185.32
2022-12-23T09:25:47.907Z,212.12
2022-12-23T09:26:51.196Z,240.82
2022-12-23T09:27:54.291Z,185.43
2022-12-23T09:28:57.953Z,229.63
2022-12-23T09:30:00.804Z,262.30
2022-12-23T09:31:11.231Z,218.35
2022-12-23T09:32:14.207Z,404.70
2022-12-23T09:33:17.883Z,313.02
2022-12-23T09:34:20.923Z,246.35
2022-12-23T09:35:23.903Z,223.75
2022-12-23T09:36:26.937Z,412.80
2022-12-23T09:37:29.894Z,204.05
2022-12-23T09:38:33.018Z,210.82
2022-12-23T09:39:35.777Z,217.98
2022-12-23T09:40:40.879Z,251.82
2022-12-23T09:42:04.990Z,170.00
2022-12-23T09:43:37.987Z,175.32
2022-12-23T09:45:13.235Z,106.82
2022-12-23T09:46:23.107Z,104.25
2022-12-23T09:47:29.811Z,138.00
2022-12-23T09:48:39.346Z,169.43
2022-12-23T09:49:52.846Z,187.27
2022-12-23T09:50:57.188Z,174.98
2022-12-23T09:52:09.400Z,206.38
2022-12-23T09:53:34.586Z,131.52
2022-12-23T09:54:49.219Z,151.18
2022-12-23T09:56:00.757Z,138.40
2022-12-23T09:58:52.427Z,119.82
2022-12-23T09:59:59.770Z,175.52
2022-12-23T10:01:38.952Z,141.88
2022-12-23T10:03:17.113Z,108.37
2022-12-23T10:04:22.961Z,134.60
2022-12-23T10:05:53.457Z,132.75
2022-12-23T10:07:04.984Z,123.75
2022-12-23T10:08:37.036Z,86.68
2022-12-23T10:09:44.294Z,88.80
2022-12-23T10:10:55.272Z,90.12
2022-12-23T10:11:58.292Z,107.57
2022-12-23T10:13:03.874Z,106.93
2022-12-23T10:14:32.337Z,130.40
2022-12-23T10:15:48.612Z,168.60
2022-12-23T10:16:58.146Z,126.45
2022-12-23T10:18:15.320Z,110.55
2022-12-23T10:19:34.527Z,117.30
2022-12-23T10:20:48.082Z,119.78
2022-12-23T10:21:56.715Z,85.43
2022-12-23T10:23:00.257Z,99.30
2022-12-23T10:24:16.652Z,72.47
2022-12-23T10:25:42.011Z,94.72
2022-12-23T10:27:01.295Z,110.70
2022-12-23T10:28:05.006Z,100.10
2022-12-23T10:29:21.019Z,141.32
2022-12-23T10:30:53.885Z,113.43
2022-12-23T10:31:57.178Z,155.15
2022-12-23T10:33:21.668Z,127.32
2022-12-23T10:34:49.581Z,79.62
2022-12-23T10:36:18.160Z,94.85
2022-12-23T10:37:27.059Z,191.43
2022-12-23T10:38:58.098Z,152.55
2022-12-23T10:40:22.379Z,160.55
2022-12-23T10:41:30.959Z,198.38
2022-12-23T10:42:40.634Z,122.80
2022-12-23T10:44:15.632Z,232.25
2022-12-23T10:45:36.800Z,182.27
2022-12-23T10:46:55.896Z,159.93
2022-12-23T10:48:17.596Z,182.27
2022-12-23T10:49:36.241Z,222.32
2022-12-23T10:51:05.403Z,128.87
2022-12-23T10:52:25.833Z,152.45
2022-12-23T10:53:36.699Z,112.57
2022-12-23T10:54:44.608Z,200.98
2022-12-23T10:55:50.416Z,143.95
2022-12-23T10:56:53.721Z,147.43
2022-12-23T10:58:05.328Z,139.80
2022-12-23T10:59:16.168Z,145.20
2022-12-23T11:00:23.702Z,139.93
2022-12-23T11:01:29.296Z,153.32
2022-12-23T11:03:09.220Z,201.82
2022-12-23T11:04:18.158Z,202.18
2022-12-23T11:05:27.817Z,307.90
2022-12-23T11:06:37.225Z,312.27
2022-12-23T11:07:45.729Z,282.27
2022-12-23T11:08:50.543Z,284.55
2022-12-23T11:10:07.644Z,155.60
2022-12-23T11:11:10.855Z,198.65
2022-12-23T11:12:14.203Z,229.80
2022-12-23T11:13:44.009Z,215.65
2022-12-23T11:14:54.555Z,227.60
2022-12-23T11:16:22.517Z,237.68
2022-12-23T11:17:28.680Z,199.65
2022-12-23T11:18:41.782Z,178.07
2022-12-23T11:19:44.961Z,217.68
2022-12-23T11:21:06.870Z,154.85
2022-12-23T11:22:23.545Z,192.25
2022-12-23T11:23:29.728Z,158.68
2022-12-23T11:24:38.039Z,188.52
2022-12-23T11:25:46.693Z,165.82
2022-12-23T11:27:02.002Z,179.82
2022-12-23T11:28:10.348Z,175.02
2022-12-23T11:29:23.796Z,171.68
2022-12-23T11:30:28.481Z,163.77
2022-12-23T11:31:36.584Z,149.75
2022-12-23T11:32:39.613Z,136.90
2022-12-23T11:33:56.070Z,125.55
2022-12-23T11:34:58.992Z,147.23
2022-12-23T11:36:13.628Z,109.05
2022-12-23T11:37:36.294Z,129.00
2022-12-23T11:38:53.419Z,139.73
2022-12-23T11:39:56.368Z,112.10
2022-12-23T11:40:59.586Z,100.85
2022-12-23T11:42:19.276Z,132.80
2022-12-23T11:43:24.918Z,141.98
2022-12-23T11:44:33.052Z,150.35
2022-12-23T11:45:38.204Z,169.73
2022-12-23T11:46:41.009Z,130.20
2022-12-23T11:47:44.006Z,100.80
2022-12-23T11:48:54.601Z,148.98
2022-12-23T11:50:01.535Z,113.78
2022-12-23T11:51:04.767Z,129.45
2022-12-23T11:52:17.226Z,200.30
2022-12-23T11:53:25.400Z,148.10
2022-12-23T11:54:28.867Z,154.50
2022-12-23T11:55:35.476Z,142.87
2022-12-23T11:56:40.488Z,98.12
2022-12-23T11:57:47.836Z,189.43
2022-12-23T11:59:07.701Z,107.28
2022-12-23T12:00:34.830Z,113.80
2022-12-23T12:01:39.567Z,138.43
2022-12-23T12:02:46.187Z,109.35
2022-12-23T12:03:55.052Z,168.43
2022-12-23T12:05:15.883Z,185.45
2022-12-23T12:06:20.417Z,132.48
2022-12-23T12:07:23.755Z,151.73
2022-12-23T12:08:34.063Z,148.55
2022-12-23T12:09:41.570Z,174.18
2022-12-23T12:10:44.601Z,137.88
2022-12-23T12:11:53.118Z,130.00
2022-12-23T12:13:02.286Z,106.28
2022-12-23T12:14:08.318Z,142.50
2022-12-23T12:15:27.095Z,107.97
2022-12-23T12:16:36.142Z,132.18
2022-12-23T12:17:48.591Z,158.82
2022-12-23T12:18:56.143Z,157.95
2022-12-23T12:20:20.497Z,142.75
2022-12-23T12:21:29.541Z,145.98
2022-12-23T12:22:39.893Z,83.97
2022-12-23T12:24:17.245Z,148.70
2022-12-23T12:25:55.363Z,135.25
2022-12-23T12:27:03.127Z,146.90
2022-12-23T12:28:11.601Z,130.05
2022-12-23T12:29:32.928Z,142.48
2022-12-23T12:30:47.565Z,147.27
2022-12-23T12:31:58.089Z,153.55
2022-12-23T12:33:14.162Z,98.18
2022-12-23T12:34:43.002Z,151.43
2022-12-23T12:35:58.898Z,121.47
2022-12-23T12:37:29.377Z,110.20
2022-12-23T12:38:39.464Z,121.60
2022-12-23T12:40:01.206Z,127.22
2022-12-23T12:41:15.850Z,144.30
2022-12-23T12:42:27.469Z,124.12
2022-12-23T12:43:38.514Z,89.32
2022-12-23T12:44:58.930Z,187.07
2022-12-23T12:46:31.184Z,129.68
2022-12-23T12:47:54.940Z,94.87
2022-12-23T12:49:04.366Z,111.90
2022-12-23T12:50:14.170Z,123.47
2022-12-23T12:51:40.444Z,139.25
2022-12-23T12:52:44.482Z,109.57
2022-12-23T12:54:06.945Z,127.57
2022-12-23T12:55:28.169Z,147.20
2022-12-23T12:56:41.766Z,129.82
2022-12-23T12:57:44.839Z,154.30
2022-12-23T12:58:49.419Z,159.05
2022-12-23T13:00:05.225Z,169.18
2022-12-23T13:01:18.208Z,148.27
2022-12-23T13:02:59.687Z,142.45
2022-12-23T13:04:28.201Z,170.48
2022-12-23T13:05:54.423Z,159.60
2022-12-23T13:07:13.783Z,162.80
2022-12-23T13:08:44.565Z,125.35
2022-12-23T13:09:59.177Z,109.60
2022-12-23T13:11:09.990Z,127.97
2022-12-23T13:12:47.738Z,138.37
2022-12-23T13:14:13.602Z,98.50
2022-12-23T13:16:02.364Z,127.00
2022-12-23T13:17:28.181Z,139.05
2022-12-23T13:18:40.526Z,102.25
2022-12-23T13:19:52.699Z,111.07
2022-12-23T13:21:20.627Z,119.55
2022-12-23T13:22:32.355Z,127.22
2022-12-23T13:23:44.065Z,198.45
2022-12-23T13:24:58.912Z,131.80
2022-12-23T13:26:13.381Z,144.70
2022-12-23T13:27:36.122Z,102.22
2022-12-23T13:28:59.719Z,114.28
2022-12-23T13:30:04.492Z,105.43
2022-12-23T13:31:25.059Z,90.07
2022-12-23T13:32:49.903Z,131.87
2022-12-23T13:34:24.558Z,128.77
2022-12-23T13:35:39.258Z,188.18
2022-12-23T13:36:56.165Z,153.82
2022-12-23T13:38:04.905Z,158.05
2022-12-23T13:39:13.516Z,110.07
2022-12-23T13:40:52.631Z,129.77
2022-12-23T13:42:05.175Z,158.93
2022-12-23T13:43:24.069Z,133.70
2022-12-23T13:44:27.357Z,89.93
2022-12-23T13:45:36.746Z,129.70
2022-12-23T13:47:06.418Z,158.65
2022-12-23T13:48:51.165Z,181.52
2022-12-23T13:50:03.896Z,112.45
2022-12-23T13:51:21.195Z,126.97
2022-12-23T13:52:35.421Z,139.12
2022-12-23T13:53:52.050Z,113.53
2022-12-23T13:55:01.154Z,77.37
2022-12-23T13:56:23.128Z,149.60
2022-12-23T13:58:50.964Z,105.55
2022-12-23T14:00:21.889Z,95.53
2022-12-23T14:01:46.752Z,141.12
2022-12-23T14:02:51.079Z,97.28
2022-12-23T14:03:56.544Z,102.95
2022-12-23T14:05:00.400Z,108.30
2022-12-23T14:06:40.955Z,97.60
2022-12-23T14:07:45.136Z,127.65
2022-12-23T14:08:51.632Z,92.22
2022-12-23T14:10:13.086Z,120.78
2022-12-23T14:11:18.219Z,101.53
2022-12-23T14:12:35.782Z,84.97
2022-12-23T14:13:55.453Z,124.93
2022-12-23T14:15:19.532Z,150.77
2022-12-23T14:17:00.753Z,87.93
2022-12-23T14:18:25.668Z,86.85
2022-12-23T14:19:34.451Z,119.95
2022-12-23T14:21:02.517Z,85.12
2022-12-23T14:22:26.747Z,70.87
2022-12-23T14:23:35.069Z,47.00
2022-12-23T14:24:53.062Z,90.95
2022-12-23T14:26:08.083Z,103.53
2022-12-23T14:27:32.293Z,79.32
2022-12-23T14:28:44.771Z,72.50
2022-12-23T14:30:05.665Z,53.75
2022-12-23T14:31:40.246Z,78.87
2022-12-23T14:32:50.771Z,78.35
2022-12-23T14:33:53.561Z,68.05
2022-12-23T14:35:18.865Z,57.97
2022-12-23T14:36:26.061Z,50.85
2022-12-23T14:37:34.019Z,54.20
2022-12-23T14:38:38.433Z,60.53
2022-12-23T14:39:41.818Z,53.40
2022-12-23T14:40:53.634Z,44.85
2022-12-23T14:42:03.461Z,45.42
2022-12-23T14:43:25.545Z,57.40
2022-12-23T14:44:28.337Z,37.63
2022-12-23T14:45:43.978Z,45.58
2022-12-23T14:46:46.819Z,43.33